KSQI/SQI METAR and TAF weather

Enter ICAO airport designator
Station Type Date Time Source
KSQI METAR 2020/04/05 05:56 UTC NOAA

KSQI 050556Z 00000KT 10SM OVC110 06/03 A3014 RMK AO2 SLP073 T00610033 10106 20061 401330000 50005


Station Type Date Time Source
KSQI Decoded METAR 2020/04/05 05:56 UTC NOAA

Sterling Rockfalls, IL, United States (KSQI) 41-45N 089-40W
Apr 05, 2020 - 01:56 AM EDT / 2020.04.05 0556 UTC
Wind: Calm:0
Visibility: 10 mile(s):0
Sky conditions: overcast
Temperature: 43.0 F (6.1 C)
Dew Point: 37.9 F (3.3 C)
Relative Humidity: 82%
Pressure (altimeter): 30.14 in. Hg (1020 hPa)
Pressure tendency: 0.01 inches (0.5 hPa) higher than three hours ago
ob: KSQI 050556Z 00000KT 10SM OVC110 06/03 A3014 RMK AO2 SLP073 T00610033 10106 20061 401330000 50005
cycle: 6

Station Type Date Time Source
KSQI TAF UTC NOAA

Error!

Example: see airport list